Time;durP1;ratioP1;P1;durP2;ratioP2;P2;SDS_P1;SDS_P2;PMS_P1;PMS_P2;Temp;Humidity;BMP_temperature;BMP_pressure;BME280_temperature;BME280_humidity;BME280_pressure;Samples;Min_cycle;Max_cycle;Signal;HPM_P1;HPM_P2
2023/08/12 00:00:19;;;;;;;15.25;3.45;;;;;;;;;;5033032;28;20021;-74
2023/08/12 00:02:45;;;;;;;7.57;3.00;;;;;;;;;;5030430;28;20033;-73
2023/08/12 00:05:11;;;;;;;7.45;3.38;;;;;;;;;;5033354;28;20026;-73
2023/08/12 00:07:38;;;;;;;14.23;3.50;;;;;;;;;;5033621;28;20029;-73
2023/08/12 00:10:05;;;;;;;11.75;3.20;;;;;;;;;;5033570;28;20025;-74
2023/08/12 00:12:34;;;;;;;12.80;3.47;;;;;;;;;;5033214;28;20036;-74
2023/08/12 00:15:01;;;;;;;15.73;3.05;;;;;;;;;;5033585;28;20029;-74
2023/08/12 00:17:27;;;;;;;7.50;3.83;;;;;;;;;;5033355;28;20037;-74
2023/08/12 00:19:53;;;;;;;10.82;3.63;;;;;;;;;;5033504;28;20115;-73
2023/08/12 00:22:19;;;;;;;8.32;3.40;;;;;;;;;;5033240;28;20390;-74
2023/08/12 00:24:45;;;;;;;10.18;3.17;;;;;;;;;;5033238;28;20376;-74
2023/08/12 00:27:11;;;;;;;7.22;3.28;;;;;;;;;;5033234;28;20038;-74
2023/08/12 00:29:37;;;;;;;13.85;3.30;;;;;;;;;;5033457;28;20391;-73
2023/08/12 00:32:03;;;;;;;7.63;3.20;;;;;;;;;;5033309;28;20029;-75
2023/08/12 00:34:29;;;;;;;9.82;3.13;;;;;;;;;;5033286;28;20462;-74
2023/08/12 00:36:55;;;;;;;8.82;3.28;;;;;;;;;;5033075;28;20021;-72
2023/08/12 00:39:22;;;;;;;6.97;3.42;;;;;;;;;;5032932;28;20067;-73
2023/08/12 00:41:48;;;;;;;11.85;3.67;;;;;;;;;;5033133;28;20017;-74
2023/08/12 00:44:14;;;;;;;11.55;3.00;;;;;;;;;;5033290;28;20455;-73
2023/08/12 00:46:41;;;;;;;8.32;3.05;;;;;;;;;;5033316;28;20075;-74
2023/08/12 00:49:07;;;;;;;9.05;3.58;;;;;;;;;;5033390;28;20501;-73
2023/08/12 00:51:33;;;;;;;9.65;3.42;;;;;;;;;;5032869;28;20548;-73
2023/08/12 00:53:59;;;;;;;9.98;3.60;;;;;;;;;;5032443;28;20022;-75
2023/08/12 00:56:27;;;;;;;8.27;3.65;;;;;;;;;;5032705;28;20033;-74
2023/08/12 00:58:53;;;;;;;7.22;3.95;;;;;;;;;;5032867;28;20021;-73
2023/08/12 01:01:20;;;;;;;6.88;3.50;;;;;;;;;;5032444;28;20091;-74
2023/08/12 01:03:46;;;;;;;7.82;3.15;;;;;;;;;;5032373;28;20029;-71
2023/08/12 01:06:12;;;;;;;8.07;3.33;;;;;;;;;;5032492;28;20112;-72
2023/08/12 01:08:38;;;;;;;10.82;3.58;;;;;;;;;;5032671;28;20037;-73
2023/08/12 01:11:10;;;;;;;7.10;3.10;;;;;;;;;;5032598;28;20025;-73
2023/08/12 01:13:57;;;;;;;12.43;3.65;;;;;;;;;;5030973;28;20511;-73
2023/08/12 01:16:23;;;;;;;11.35;3.40;;;;;;;;;;5032032;28;20399;-74
2023/08/12 01:18:50;;;;;;;6.25;3.28;;;;;;;;;;5032202;28;20076;-73
2023/08/12 01:21:17;;;;;;;11.55;3.70;;;;;;;;;;5032011;28;20499;-73
2023/08/12 01:23:43;;;;;;;7.35;3.50;;;;;;;;;;5031534;28;20456;-74
2023/08/12 01:26:09;;;;;;;10.85;3.20;;;;;;;;;;5032179;28;20104;-73
2023/08/12 01:28:35;;;;;;;6.60;3.33;;;;;;;;;;5032076;28;20100;-74
2023/08/12 01:31:01;;;;;;;9.23;3.78;;;;;;;;;;5031955;28;20051;-74
2023/08/12 01:33:43;;;;;;;12.23;3.90;;;;;;;;;;5031394;28;20026;-74
2023/08/12 01:36:13;;;;;;;8.82;3.50;;;;;;;;;;5032006;28;20513;-73
2023/08/12 01:38:39;;;;;;;7.68;3.60;;;;;;;;;;5031764;28;20525;-74
2023/08/12 01:41:07;;;;;;;6.65;3.50;;;;;;;;;;5031809;28;20025;-74
2023/08/12 01:43:33;;;;;;;5.97;3.40;;;;;;;;;;5031265;28;20565;-73
2023/08/12 01:45:59;;;;;;;7.07;3.58;;;;;;;;;;5031893;28;20491;-74
2023/08/12 01:48:25;;;;;;;7.63;4.15;;;;;;;;;;5031770;28;20044;-75
2023/08/12 01:50:51;;;;;;;10.90;4.10;;;;;;;;;;5028796;28;20029;-74
2023/08/12 01:53:17;;;;;;;10.07;3.78;;;;;;;;;;5031125;28;20026;-74
2023/08/12 01:55:44;;;;;;;7.93;3.75;;;;;;;;;;5031681;28;20031;-74
2023/08/12 01:58:10;;;;;;;13.75;3.67;;;;;;;;;;5031844;28;20352;-73
2023/08/12 02:00:36;;;;;;;9.32;3.50;;;;;;;;;;5031760;28;20116;-74
2023/08/12 02:03:02;;;;;;;7.07;3.72;;;;;;;;;;5031005;28;20025;-74
2023/08/12 02:05:28;;;;;;;10.18;3.97;;;;;;;;;;5031792;28;20104;-74
2023/08/12 02:07:54;;;;;;;12.73;3.97;;;;;;;;;;5031498;28;20526;-74
2023/08/12 02:10:20;;;;;;;10.65;4.28;;;;;;;;;;5031508;28;20033;-74
2023/08/12 02:12:46;;;;;;;11.10;4.07;;;;;;;;;;5031749;28;20038;-73
2023/08/12 02:15:12;;;;;;;10.45;4.28;;;;;;;;;;5035410;28;20039;-74
2023/08/12 02:17:38;;;;;;;6.97;4.40;;;;;;;;;;5035286;28;20033;-73
2023/08/12 02:20:04;;;;;;;13.77;4.55;;;;;;;;;;5035602;28;20037;-75
2023/08/12 02:22:30;;;;;;;8.38;4.40;;;;;;;;;;5035222;28;20155;-75
2023/08/12 02:24:56;;;;;;;14.25;4.30;;;;;;;;;;5035987;28;20033;-75
2023/08/12 02:27:22;;;;;;;9.07;4.00;;;;;;;;;;5038160;28;20139;-74
2023/08/12 02:29:48;;;;;;;9.93;4.75;;;;;;;;;;5041410;28;20040;-74
2023/08/12 02:32:14;;;;;;;21.35;8.60;;;;;;;;;;5043725;28;20018;-73
2023/08/12 02:34:40;;;;;;;16.73;7.97;;;;;;;;;;5040519;28;20033;-74
2023/08/12 02:37:06;;;;;;;9.90;5.00;;;;;;;;;;5039608;28;20033;-74
2023/08/12 02:39:32;;;;;;;9.38;4.50;;;;;;;;;;5041083;28;20021;-72
2023/08/12 02:41:58;;;;;;;11.45;4.25;;;;;;;;;;5039794;28;20076;-75
2023/08/12 02:44:24;;;;;;;10.35;4.47;;;;;;;;;;5039988;28;20071;-75
2023/08/12 02:46:50;;;;;;;16.45;5.05;;;;;;;;;;5039201;28;20036;-74
2023/08/12 02:49:16;;;;;;;10.13;4.10;;;;;;;;;;5039601;28;20029;-74
2023/08/12 02:51:42;;;;;;;7.50;4.40;;;;;;;;;;5039988;28;20033;-72
2023/08/12 02:54:08;;;;;;;9.98;4.32;;;;;;;;;;5039968;28;20430;-73
2023/08/12 02:56:34;;;;;;;9.95;4.22;;;;;;;;;;5040036;28;20033;-74
2023/08/12 02:59:00;;;;;;;10.38;4.70;;;;;;;;;;5035846;28;20148;-72
2023/08/12 03:01:27;;;;;;;9.27;4.97;;;;;;;;;;5034480;28;20112;-75
2023/08/12 03:03:53;;;;;;;12.18;5.15;;;;;;;;;;5034872;28;20029;-73
2023/08/12 03:06:19;;;;;;;13.40;5.38;;;;;;;;;;5034784;28;20026;-74
2023/08/12 03:08:45;;;;;;;13.68;5.13;;;;;;;;;;5033388;28;20029;-74
2023/08/12 03:11:11;;;;;;;11.55;4.82;;;;;;;;;;5034610;28;20105;-74
2023/08/12 03:13:37;;;;;;;11.13;4.95;;;;;;;;;;5034105;28;20029;-74
2023/08/12 03:16:03;;;;;;;12.30;4.57;;;;;;;;;;5036236;28;20061;-74
2023/08/12 03:18:29;;;;;;;11.45;4.97;;;;;;;;;;5032058;28;20391;-77
2023/08/12 03:20:55;;;;;;;7.75;4.30;;;;;;;;;;5034593;28;20021;-77
2023/08/12 03:23:21;;;;;;;12.13;3.90;;;;;;;;;;5033308;28;20045;-77
2023/08/12 03:25:51;;;;;;;12.98;4.28;;;;;;;;;;5032820;28;20077;-76
2023/08/12 03:28:17;;;;;;;8.57;4.30;;;;;;;;;;5039925;28;20021;-77
2023/08/12 03:30:43;;;;;;;12.48;4.30;;;;;;;;;;5035211;28;20033;-76
2023/08/12 03:33:09;;;;;;;10.20;4.15;;;;;;;;;;5032954;28;20087;-77
2023/08/12 03:35:35;;;;;;;9.60;4.28;;;;;;;;;;5032821;28;20022;-76
2023/08/12 03:38:01;;;;;;;7.85;4.13;;;;;;;;;;5033950;28;20032;-77
2023/08/12 03:40:27;;;;;;;8.73;4.03;;;;;;;;;;5033817;28;20021;-77
2023/08/12 03:42:53;;;;;;;8.98;4.47;;;;;;;;;;5031499;28;20028;-76
2023/08/12 03:45:19;;;;;;;12.07;3.92;;;;;;;;;;5033958;28;20032;-77
2023/08/12 03:47:45;;;;;;;7.70;4.15;;;;;;;;;;5033672;28;20100;-76
2023/08/12 03:50:11;;;;;;;13.82;4.40;;;;;;;;;;5034103;28;20418;-75
2023/08/12 03:52:37;;;;;;;8.73;4.22;;;;;;;;;;5034095;28;20029;-74
2023/08/12 03:55:03;;;;;;;8.82;4.18;;;;;;;;;;5034525;28;20017;-72
2023/08/12 03:57:29;;;;;;;9.40;4.45;;;;;;;;;;5034180;28;20033;-74
2023/08/12 03:59:55;;;;;;;6.90;3.55;;;;;;;;;;5034605;28;20475;-74
2023/08/12 04:02:21;;;;;;;10.68;4.53;;;;;;;;;;5036404;28;20033;-73
2023/08/12 04:04:47;;;;;;;8.45;4.85;;;;;;;;;;5039324;28;20033;-74
2023/08/12 04:07:13;;;;;;;18.35;8.40;;;;;;;;;;5039486;28;20025;-74
2023/08/12 04:09:39;;;;;;;13.48;5.70;;;;;;;;;;5038815;28;20022;-74
2023/08/12 04:12:06;;;;;;;11.40;4.38;;;;;;;;;;5040277;28;20353;-73
2023/08/12 04:14:32;;;;;;;12.10;4.95;;;;;;;;;;5039409;28;20092;-74
2023/08/12 04:16:58;;;;;;;25.48;8.38;;;;;;;;;;5035660;28;20025;-73
2023/08/12 04:19:23;;;;;;;12.73;7.20;;;;;;;;;;5033274;28;20048;-73
2023/08/12 04:21:49;;;;;;;7.88;4.90;;;;;;;;;;5032950;28;20105;-74
2023/08/12 04:24:15;;;;;;;9.77;5.45;;;;;;;;;;5033235;28;20017;-74
2023/08/12 04:26:41;;;;;;;9.40;5.65;;;;;;;;;;5033167;28;20510;-75
2023/08/12 04:29:07;;;;;;;8.30;4.60;;;;;;;;;;5033197;28;20030;-74
2023/08/12 04:31:33;;;;;;;9.38;4.63;;;;;;;;;;5033251;28;20252;-74
2023/08/12 04:33:59;;;;;;;15.60;4.97;;;;;;;;;;5032697;28;20045;-75
2023/08/12 04:36:25;;;;;;;9.30;4.50;;;;;;;;;;5032419;28;20018;-75
2023/08/12 04:38:52;;;;;;;11.43;4.55;;;;;;;;;;5032889;28;20475;-75
2023/08/12 04:41:18;;;;;;;11.23;5.07;;;;;;;;;;5032953;28;20017;-75
2023/08/12 04:43:44;;;;;;;9.30;4.80;;;;;;;;;;5032710;28;20021;-75
2023/08/12 04:46:10;;;;;;;9.20;5.20;;;;;;;;;;5032881;28;20033;-75
2023/08/12 04:48:36;;;;;;;16.33;4.88;;;;;;;;;;5032686;28;20026;-75
2023/08/12 04:51:03;;;;;;;16.80;5.70;;;;;;;;;;5032710;28;20114;-76
2023/08/12 04:53:29;;;;;;;13.27;7.25;;;;;;;;;;5032432;28;20083;-74
2023/08/12 04:55:56;;;;;;;11.30;4.88;;;;;;;;;;5033042;28;20025;-75
2023/08/12 04:58:22;;;;;;;17.40;4.75;;;;;;;;;;5036370;28;20044;-74
2023/08/12 05:00:48;;;;;;;8.75;4.60;;;;;;;;;;5038960;28;20125;-75
2023/08/12 05:03:14;;;;;;;10.25;5.88;;;;;;;;;;5032342;28;20479;-74
2023/08/12 05:05:40;;;;;;;6.57;4.65;;;;;;;;;;5033201;28;20021;-77
2023/08/12 05:08:06;;;;;;;19.80;5.25;;;;;;;;;;5032851;28;20029;-74
2023/08/12 05:10:32;;;;;;;12.00;4.57;;;;;;;;;;5033163;28;20067;-76
2023/08/12 05:12:58;;;;;;;8.50;4.80;;;;;;;;;;5031421;28;20094;-75
2023/08/12 05:15:24;;;;;;;12.55;4.43;;;;;;;;;;5031602;28;20231;-75
2023/08/12 05:17:50;;;;;;;14.63;4.75;;;;;;;;;;5033719;28;20085;-75
2023/08/12 05:20:16;;;;;;;16.73;4.90;;;;;;;;;;5032929;28;20028;-75
2023/08/12 05:22:42;;;;;;;9.30;4.53;;;;;;;;;;5030780;28;20021;-76
2023/08/12 05:25:08;;;;;;;9.57;4.68;;;;;;;;;;5032534;28;20490;-75
2023/08/12 05:27:34;;;;;;;9.73;4.80;;;;;;;;;;5032646;28;20017;-74
2023/08/12 05:30:00;;;;;;;10.65;5.28;;;;;;;;;;5032885;28;20023;-77
2023/08/12 05:32:26;;;;;;;10.75;5.35;;;;;;;;;;5037833;28;20124;-73
2023/08/12 05:34:56;;;;;;;14.77;5.13;;;;;;;;;;5035960;28;20021;-75
2023/08/12 05:37:22;;;;;;;10.82;5.80;;;;;;;;;;5029564;28;20475;-75
2023/08/12 05:39:48;;;;;;;13.35;5.65;;;;;;;;;;5033082;28;20097;-72
2023/08/12 05:42:14;;;;;;;10.25;5.15;;;;;;;;;;5034295;28;20033;-73
2023/08/12 05:44:42;;;;;;;12.73;5.22;;;;;;;;;;5033659;28;20028;-74
2023/08/12 05:47:08;;;;;;;14.23;5.55;;;;;;;;;;5033465;28;20446;-72
2023/08/12 05:49:34;;;;;;;11.90;5.85;;;;;;;;;;5034300;28;20033;-73
2023/08/12 05:52:00;;;;;;;7.40;4.88;;;;;;;;;;5034417;28;20101;-73
2023/08/12 05:54:26;;;;;;;12.75;5.47;;;;;;;;;;5035045;28;20161;-73
2023/08/12 05:56:52;;;;;;;11.32;5.05;;;;;;;;;;5032373;28;20035;-72
2023/08/12 05:59:18;;;;;;;10.45;4.90;;;;;;;;;;5033096;28;20053;-75
2023/08/12 06:01:44;;;;;;;11.82;5.03;;;;;;;;;;5035459;28;20052;-75
2023/08/12 06:04:10;;;;;;;10.25;5.90;;;;;;;;;;5034002;28;20125;-73
2023/08/12 06:06:36;;;;;;;8.50;6.00;;;;;;;;;;5033961;28;20068;-77
2023/08/12 06:09:02;;;;;;;10.73;5.85;;;;;;;;;;5029586;28;20029;-77
2023/08/12 06:11:28;;;;;;;9.80;5.82;;;;;;;;;;5032069;28;20045;-76
2023/08/12 06:13:54;;;;;;;12.38;6.30;;;;;;;;;;5031272;28;20036;-77
2023/08/12 06:16:20;;;;;;;9.73;6.63;;;;;;;;;;5030764;28;20030;-76
2023/08/12 06:18:46;;;;;;;24.70;11.13;;;;;;;;;;5033897;28;20576;-74
2023/08/12 06:21:12;;;;;;;18.55;8.77;;;;;;;;;;5033786;28;20025;-74
2023/08/12 06:23:38;;;;;;;13.02;7.07;;;;;;;;;;5030779;28;20025;-72
2023/08/12 06:26:04;;;;;;;13.05;6.53;;;;;;;;;;5033358;28;20107;-74
2023/08/12 06:28:30;;;;;;;16.25;7.40;;;;;;;;;;5029809;28;20375;-72
2023/08/12 06:30:56;;;;;;;13.18;7.32;;;;;;;;;;5032599;28;20029;-73
2023/08/12 06:33:22;;;;;;;11.05;6.20;;;;;;;;;;5031999;28;20110;-75
2023/08/12 06:35:48;;;;;;;12.13;7.47;;;;;;;;;;5033390;28;20037;-74
2023/08/12 06:38:14;;;;;;;13.40;7.15;;;;;;;;;;5038524;28;20026;-73
2023/08/12 06:40:40;;;;;;;13.85;7.75;;;;;;;;;;5038207;28;20029;-74
2023/08/12 06:43:07;;;;;;;11.25;7.68;;;;;;;;;;5037165;28;20018;-74
2023/08/12 06:45:33;;;;;;;13.55;7.60;;;;;;;;;;5031221;28;20033;-72
2023/08/12 06:47:59;;;;;;;12.98;7.80;;;;;;;;;;5030008;28;20032;-71
2023/08/12 06:50:25;;;;;;;12.55;8.05;;;;;;;;;;5031614;28;20026;-73
2023/08/12 06:52:51;;;;;;;11.90;7.50;;;;;;;;;;5030476;28;20037;-73
2023/08/12 06:55:17;;;;;;;12.77;7.70;;;;;;;;;;5030359;28;20021;-72
2023/08/12 06:57:43;;;;;;;13.00;8.05;;;;;;;;;;5030762;28;20433;-72
2023/08/12 07:00:09;;;;;;;13.95;7.82;;;;;;;;;;5033743;28;20032;-73
2023/08/12 07:02:36;;;;;;;14.02;7.78;;;;;;;;;;5034467;28;20100;-73
2023/08/12 07:05:01;;;;;;;13.88;8.23;;;;;;;;;;5035996;28;20380;-73
2023/08/12 07:07:27;;;;;;;14.07;7.95;;;;;;;;;;5036266;28;20021;-74
2023/08/12 07:09:54;;;;;;;13.57;8.27;;;;;;;;;;5037034;28;20033;-73
2023/08/12 07:12:20;;;;;;;16.88;8.00;;;;;;;;;;5034057;28;20075;-72
2023/08/12 07:14:45;;;;;;;20.13;8.48;;;;;;;;;;5036413;28;20037;-73
2023/08/12 07:17:11;;;;;;;12.27;7.60;;;;;;;;;;5043202;28;20112;-73
2023/08/12 07:19:37;;;;;;;10.18;7.22;;;;;;;;;;5034679;28;20028;-72
2023/08/12 07:22:04;;;;;;;13.38;8.15;;;;;;;;;;5031994;28;20048;-72
2023/08/12 07:24:29;;;;;;;13.10;8.20;;;;;;;;;;5032030;28;20025;-73
2023/08/12 07:26:55;;;;;;;13.80;8.40;;;;;;;;;;5035800;28;20025;-72
2023/08/12 07:29:21;;;;;;;18.20;9.13;;;;;;;;;;5035684;28;20108;-74
2023/08/12 07:31:47;;;;;;;13.50;8.82;;;;;;;;;;5034769;28;20442;-73
2023/08/12 07:34:14;;;;;;;13.20;8.73;;;;;;;;;;5035245;28;20044;-74
2023/08/12 07:36:40;;;;;;;18.80;8.73;;;;;;;;;;5034618;28;20504;-74
2023/08/12 07:39:06;;;;;;;16.75;8.73;;;;;;;;;;5034596;28;20399;-78
2023/08/12 07:41:33;;;;;;;14.85;7.32;;;;;;;;;;5034783;28;20021;-77
2023/08/12 07:43:59;;;;;;;10.98;8.77;;;;;;;;;;5035001;28;20014;-77
2023/08/12 07:46:25;;;;;;;20.38;12.48;;;;;;;;;;5035401;28;20459;-75
2023/08/12 07:48:51;;;;;;;16.70;10.00;;;;;;;;;;5034913;28;20030;-77
2023/08/12 07:51:17;;;;;;;18.10;9.65;;;;;;;;;;5037358;28;20085;-74
2023/08/12 07:53:43;;;;;;;18.15;9.73;;;;;;;;;;5035528;28;20049;-75
2023/08/12 07:56:09;;;;;;;13.80;8.30;;;;;;;;;;5034307;28;20079;-75
2023/08/12 07:58:35;;;;;;;15.98;8.25;;;;;;;;;;5038166;28;20037;-76
2023/08/12 08:01:01;;;;;;;11.90;8.43;;;;;;;;;;5038105;28;20022;-76
2023/08/12 08:03:27;;;;;;;16.10;7.78;;;;;;;;;;5036701;28;20492;-77
2023/08/12 08:05:53;;;;;;;14.18;7.53;;;;;;;;;;5036141;28;20025;-76
2023/08/12 08:08:20;;;;;;;16.15;9.00;;;;;;;;;;5034910;28;20053;-77
2023/08/12 08:10:46;;;;;;;16.15;8.20;;;;;;;;;;5032896;28;20551;-76
2023/08/12 08:13:12;;;;;;;13.23;7.68;;;;;;;;;;5033895;28;20047;-75
2023/08/12 08:15:38;;;;;;;15.45;8.10;;;;;;;;;;5034472;28;20399;-80
2023/08/12 08:18:04;;;;;;;15.80;8.15;;;;;;;;;;5035648;28;20032;-72
2023/08/12 08:20:30;;;;;;;13.15;7.43;;;;;;;;;;5033698;28;20018;-75
2023/08/12 08:22:56;;;;;;;16.02;7.40;;;;;;;;;;5035412;28;20106;-72
2023/08/12 08:25:22;;;;;;;15.68;7.55;;;;;;;;;;5039941;28;20022;-72
2023/08/12 08:27:48;;;;;;;13.57;6.65;;;;;;;;;;5044588;28;20049;-74
2023/08/12 08:30:14;;;;;;;16.80;7.55;;;;;;;;;;5042345;28;20483;-72
2023/08/12 08:32:40;;;;;;;13.57;6.40;;;;;;;;;;5033751;28;20033;-74
2023/08/12 08:35:07;;;;;;;16.92;7.30;;;;;;;;;;5033234;28;20025;-74
2023/08/12 08:37:32;;;;;;;16.02;7.88;;;;;;;;;;5033030;28;20387;-74
2023/08/12 08:39:58;;;;;;;12.77;7.22;;;;;;;;;;5033247;28;20025;-73
2023/08/12 08:42:25;;;;;;;14.05;6.05;;;;;;;;;;5032986;28;20026;-73
2023/08/12 08:44:56;;;;;;;12.80;6.90;;;;;;;;;;5033088;28;20033;-73
2023/08/12 08:47:26;;;;;;;15.73;9.00;;;;;;;;;;5032853;28;20116;-74
2023/08/12 08:49:52;;;;;;;15.50;8.23;;;;;;;;;;5033095;28;20025;-74
2023/08/12 08:52:18;;;;;;;18.40;9.75;;;;;;;;;;5032780;28;20057;-73
2023/08/12 08:54:44;;;;;;;18.30;9.65;;;;;;;;;;5033041;28;20479;-75
2023/08/12 08:57:12;;;;;;;16.08;8.95;;;;;;;;;;5033333;28;20116;-72
2023/08/12 08:59:38;;;;;;;13.98;7.90;;;;;;;;;;5033178;28;20039;-74
2023/08/12 09:02:05;;;;;;;14.38;7.90;;;;;;;;;;5032780;28;20411;-75
2023/08/12 09:04:31;;;;;;;8.52;5.47;;;;;;;;;;5040345;28;20096;-72
2023/08/12 09:06:58;;;;;;;15.52;7.15;;;;;;;;;;5052210;28;20079;-73
2023/08/12 09:09:25;;;;;;;12.57;6.50;;;;;;;;;;5051883;28;20028;-73
2023/08/12 09:11:53;;;;;;;11.25;5.63;;;;;;;;;;5051622;28;20025;-73
2023/08/12 09:14:19;;;;;;;11.98;6.15;;;;;;;;;;5052311;28;20029;-73
2023/08/12 09:16:45;;;;;;;16.33;7.85;;;;;;;;;;5052173;28;20630;-72
2023/08/12 09:19:12;;;;;;;15.02;7.18;;;;;;;;;;5052176;28;20059;-72
2023/08/12 09:21:38;;;;;;;11.65;6.50;;;;;;;;;;5052115;28;20025;-74
2023/08/12 09:24:04;;;;;;;12.05;6.65;;;;;;;;;;5051005;28;20025;-75
2023/08/12 09:26:30;;;;;;;12.68;7.18;;;;;;;;;;5052297;28;20021;-73
2023/08/12 09:28:56;;;;;;;11.23;6.53;;;;;;;;;;5051929;28;20429;-73
2023/08/12 09:31:27;;;;;;;14.38;8.15;;;;;;;;;;5051929;28;20100;-73
2023/08/12 09:33:54;;;;;;;14.88;7.03;;;;;;;;;;5051738;28;20033;-73
2023/08/12 09:36:22;;;;;;;15.25;7.35;;;;;;;;;;5051956;28;20029;-73
2023/08/12 09:38:48;;;;;;;13.20;7.65;;;;;;;;;;5052337;28;20021;-76
2023/08/12 09:41:14;;;;;;;17.58;8.30;;;;;;;;;;5052995;28;20044;-79
2023/08/12 09:43:43;;;;;;;15.25;7.60;;;;;;;;;;5053012;28;20077;-78
2023/08/12 09:46:13;;;;;;;15.00;8.10;;;;;;;;;;5052434;28;20083;-75
2023/08/12 09:48:39;;;;;;;16.48;8.27;;;;;;;;;;5051432;28;20049;-74
2023/08/12 09:51:05;;;;;;;12.63;8.07;;;;;;;;;;5051287;28;20064;-73
2023/08/12 09:53:32;;;;;;;12.93;7.40;;;;;;;;;;5052015;28;20048;-74
2023/08/12 09:56:00;;;;;;;14.25;7.38;;;;;;;;;;5052868;28;20032;-73
2023/08/12 09:58:29;;;;;;;15.55;7.25;;;;;;;;;;5053371;28;20166;-74
2023/08/12 10:00:55;;;;;;;15.85;8.30;;;;;;;;;;5052351;28;20482;-73
2023/08/12 10:03:22;;;;;;;16.02;8.20;;;;;;;;;;5052098;28;20063;-73
2023/08/12 10:05:48;;;;;;;17.05;7.55;;;;;;;;;;5052182;28;20021;-73
2023/08/12 10:08:15;;;;;;;12.55;7.80;;;;;;;;;;5054036;28;20083;-74
2023/08/12 10:10:41;;;;;;;12.00;6.55;;;;;;;;;;5053011;28;20021;-73
2023/08/12 10:13:09;;;;;;;11.95;5.55;;;;;;;;;;5052301;28;20033;-73
2023/08/12 10:15:35;;;;;;;13.57;7.18;;;;;;;;;;5053380;28;20082;-74
2023/08/12 10:18:01;;;;;;;15.63;6.18;;;;;;;;;;5051754;28;20025;-72
2023/08/12 10:20:28;;;;;;;11.55;6.55;;;;;;;;;;5051414;28;20059;-73
2023/08/12 10:22:54;;;;;;;15.52;6.30;;;;;;;;;;5051081;28;20021;-74
2023/08/12 10:25:24;;;;;;;9.77;6.00;;;;;;;;;;5051101;28;20103;-72
2023/08/12 10:27:50;;;;;;;10.68;6.22;;;;;;;;;;5043920;28;20109;-71
2023/08/12 10:30:16;;;;;;;9.07;4.95;;;;;;;;;;5029693;28;20104;-71
2023/08/12 10:32:43;;;;;;;11.15;5.53;;;;;;;;;;5029086;28;20500;-72
2023/08/12 10:35:09;;;;;;;8.68;4.60;;;;;;;;;;5033228;28;20010;-73
2023/08/12 10:37:35;;;;;;;8.60;4.35;;;;;;;;;;5035389;28;20025;-74
2023/08/12 10:40:08;;;;;;;10.38;5.35;;;;;;;;;;5036320;28;20075;-75
2023/08/12 10:42:42;;;;;;;10.40;4.90;;;;;;;;;;5038150;28;20028;-73
2023/08/12 10:45:08;;;;;;;8.13;4.93;;;;;;;;;;5039723;28;20532;-74
2023/08/12 10:47:38;;;;;;;9.38;4.93;;;;;;;;;;5037617;28;20028;-74
2023/08/12 10:50:04;;;;;;;11.10;5.65;;;;;;;;;;5036215;28;20048;-74
2023/08/12 10:52:32;;;;;;;13.13;6.40;;;;;;;;;;5034067;28;20026;-74
2023/08/12 10:55:17;;;;;;;11.10;6.38;;;;;;;;;;5033868;28;20053;-74
2023/08/12 10:57:44;;;;;;;17.25;7.68;;;;;;;;;;5033580;28;20021;-73
2023/08/12 11:00:29;;;;;;;16.13;7.80;;;;;;;;;;5031070;28;20459;-74
2023/08/12 11:02:56;;;;;;;12.45;7.85;;;;;;;;;;5033502;28;20013;-73
2023/08/12 11:05:23;;;;;;;16.67;8.20;;;;;;;;;;5033407;28;20341;-73
2023/08/12 11:07:56;;;;;;;16.40;9.20;;;;;;;;;;5032840;28;20435;-74
2023/08/12 11:10:25;;;;;;;16.75;7.88;;;;;;;;;;5033157;28;20017;-73
2023/08/12 11:12:54;;;;;;;13.15;8.48;;;;;;;;;;5032864;28;20109;-74
2023/08/12 11:15:30;;;;;;;16.63;8.02;;;;;;;;;;5034613;28;20040;-74
2023/08/12 11:17:56;;;;;;;13.18;6.97;;;;;;;;;;5048881;28;20053;-72
2023/08/12 11:20:22;;;;;;;16.75;7.68;;;;;;;;;;5034851;28;20059;-73
2023/08/12 11:22:48;;;;;;;13.63;5.82;;;;;;;;;;5033578;28;20029;-72
2023/08/12 11:25:15;;;;;;;9.40;5.22;;;;;;;;;;5034708;28;20101;-73
2023/08/12 11:27:47;;;;;;;12.13;4.90;;;;;;;;;;5037527;28;20479;-73
2023/08/12 11:30:15;;;;;;;10.35;5.75;;;;;;;;;;5040012;28;20033;-75
2023/08/12 11:32:43;;;;;;;7.18;4.40;;;;;;;;;;5041707;28;20033;-75
2023/08/12 11:35:10;;;;;;;9.00;4.57;;;;;;;;;;5041709;28;20030;-74
2023/08/12 11:37:37;;;;;;;10.23;5.80;;;;;;;;;;5045590;28;20097;-74
2023/08/12 11:40:04;;;;;;;9.85;5.22;;;;;;;;;;5042911;28;20032;-71
2023/08/12 11:42:30;;;;;;;10.63;5.50;;;;;;;;;;5034048;28;20029;-73
2023/08/12 11:44:56;;;;;;;11.10;5.03;;;;;;;;;;5037396;28;20037;-73
2023/08/12 11:47:22;;;;;;;8.57;4.85;;;;;;;;;;5033685;28;20152;-73
2023/08/12 11:49:48;;;;;;;8.35;4.50;;;;;;;;;;5034071;28;20491;-75
2023/08/12 11:52:14;;;;;;;10.55;5.57;;;;;;;;;;5036203;28;20087;-73
2023/08/12 11:54:40;;;;;;;10.05;4.32;;;;;;;;;;5038375;28;20025;-75
2023/08/12 11:57:06;;;;;;;8.57;4.55;;;;;;;;;;5036778;28;20037;-74
2023/08/12 11:59:32;;;;;;;9.00;5.65;;;;;;;;;;5034868;28;20029;-75
2023/08/12 12:02:01;;;;;;;12.95;5.88;;;;;;;;;;5034106;28;20412;-74
2023/08/12 12:04:27;;;;;;;15.48;5.75;;;;;;;;;;5033445;28;20033;-73
2023/08/12 12:06:53;;;;;;;9.82;5.30;;;;;;;;;;5033409;28;20438;-73
2023/08/12 12:09:20;;;;;;;14.20;6.72;;;;;;;;;;5033410;28;20025;-73
2023/08/12 12:11:46;;;;;;;16.45;7.60;;;;;;;;;;5032798;28;20036;-74
2023/08/12 12:14:12;;;;;;;13.55;6.00;;;;;;;;;;5033347;28;20029;-74
2023/08/12 12:16:42;;;;;;;13.50;5.70;;;;;;;;;;5033215;28;20351;-73
2023/08/12 12:19:11;;;;;;;15.30;6.13;;;;;;;;;;5035587;28;20057;-74
2023/08/12 12:21:41;;;;;;;12.00;5.82;;;;;;;;;;5034385;28;20036;-75
2023/08/12 12:24:07;;;;;;;14.02;6.68;;;;;;;;;;5033055;28;20028;-73
2023/08/12 12:26:33;;;;;;;9.70;5.47;;;;;;;;;;5033367;28;20044;-72
2023/08/12 12:28:59;;;;;;;11.05;6.60;;;;;;;;;;5033460;28;20032;-74
2023/08/12 12:31:25;;;;;;;11.40;6.00;;;;;;;;;;5033142;28;20033;-74
2023/08/12 12:33:51;;;;;;;12.80;6.25;;;;;;;;;;5032860;28;20052;-73
2023/08/12 12:36:17;;;;;;;11.98;6.88;;;;;;;;;;5033039;28;20034;-72
2023/08/12 12:38:43;;;;;;;11.65;6.47;;;;;;;;;;5032967;28;20025;-74
2023/08/12 12:41:09;;;;;;;12.65;5.60;;;;;;;;;;5032871;28;20105;-75
2023/08/12 12:43:35;;;;;;;8.88;5.43;;;;;;;;;;5032991;28;20112;-74
2023/08/12 12:46:01;;;;;;;15.10;5.97;;;;;;;;;;5033118;28;20049;-74
2023/08/12 12:48:27;;;;;;;11.50;5.72;;;;;;;;;;5035573;28;20030;-74
2023/08/12 12:50:53;;;;;;;12.18;6.20;;;;;;;;;;5038967;28;20037;-74
2023/08/12 12:53:19;;;;;;;12.15;6.25;;;;;;;;;;5036257;28;20025;-75
2023/08/12 12:55:45;;;;;;;8.57;5.57;;;;;;;;;;5035915;28;20033;-75
2023/08/12 12:58:11;;;;;;;20.40;11.57;;;;;;;;;;5035646;28;20161;-75
2023/08/12 13:00:37;;;;;;;20.70;11.82;;;;;;;;;;5034880;28;20057;-76
2023/08/12 13:03:03;;;;;;;12.93;7.75;;;;;;;;;;5035611;28;20022;-76
2023/08/12 13:05:29;;;;;;;12.57;7.10;;;;;;;;;;5037005;28;20495;-76
2023/08/12 13:07:55;;;;;;;14.88;7.40;;;;;;;;;;5037153;28;20108;-76
2023/08/12 13:10:21;;;;;;;13.43;7.53;;;;;;;;;;5032627;28;20464;-76
2023/08/12 13:12:47;;;;;;;11.80;6.20;;;;;;;;;;5032110;28;20091;-77
2023/08/12 13:15:13;;;;;;;19.35;9.90;;;;;;;;;;5033170;28;20029;-71
2023/08/12 13:17:39;;;;;;;19.50;8.80;;;;;;;;;;5032166;28;20022;-75
2023/08/12 13:20:06;;;;;;;11.30;6.30;;;;;;;;;;5032321;28;20013;-73
2023/08/12 13:22:32;;;;;;;14.07;7.40;;;;;;;;;;5031913;28;20155;-75
2023/08/12 13:24:57;;;;;;;11.02;6.15;;;;;;;;;;5032196;28;20080;-76
2023/08/12 13:27:23;;;;;;;13.40;8.00;;;;;;;;;;5032198;28;20029;-75
2023/08/12 13:29:49;;;;;;;11.52;6.55;;;;;;;;;;5032357;28;20144;-72
2023/08/12 13:32:15;;;;;;;11.45;7.18;;;;;;;;;;5032216;28;20455;-75
2023/08/12 13:34:46;;;;;;;14.57;6.72;;;;;;;;;;5033245;28;20112;-73
2023/08/12 13:37:12;;;;;;;13.43;6.20;;;;;;;;;;5031904;28;20495;-74
2023/08/12 13:39:38;;;;;;;9.48;6.53;;;;;;;;;;5031963;28;20063;-74
2023/08/12 13:42:03;;;;;;;13.30;7.25;;;;;;;;;;5031777;28;20049;-75
2023/08/12 13:44:29;;;;;;;14.52;7.05;;;;;;;;;;5032377;28;20494;-74
2023/08/12 13:46:55;;;;;;;11.05;7.00;;;;;;;;;;5032157;28;20076;-75
2023/08/12 13:49:21;;;;;;;12.10;6.80;;;;;;;;;;5032262;28;20032;-73
2023/08/12 13:51:47;;;;;;;9.50;6.32;;;;;;;;;;5031603;28;20017;-74
2023/08/12 13:54:13;;;;;;;9.45;6.05;;;;;;;;;;5031195;28;20105;-73
2023/08/12 13:56:39;;;;;;;10.27;6.68;;;;;;;;;;5032018;28;20477;-72
2023/08/12 13:59:05;;;;;;;14.30;6.45;;;;;;;;;;5031927;28;20105;-73
2023/08/12 14:01:31;;;;;;;13.10;7.45;;;;;;;;;;5033522;28;20674;-73
2023/08/12 14:03:57;;;;;;;14.90;7.72;;;;;;;;;;5036063;28;20089;-72
2023/08/12 14:06:23;;;;;;;14.00;6.88;;;;;;;;;;5033305;28;20083;-73
2023/08/12 14:08:49;;;;;;;12.75;7.25;;;;;;;;;;5032862;28;20100;-72
2023/08/12 14:11:15;;;;;;;12.88;6.90;;;;;;;;;;5035565;28;20491;-74
2023/08/12 14:13:41;;;;;;;13.98;8.02;;;;;;;;;;5034811;28;20037;-72
2023/08/12 14:16:07;;;;;;;14.35;8.48;;;;;;;;;;5035733;28;20037;-73
2023/08/12 14:18:33;;;;;;;13.13;7.32;;;;;;;;;;5035476;28;20116;-72
2023/08/12 14:20:59;;;;;;;14.95;8.88;;;;;;;;;;5035597;28;20025;-73
2023/08/12 14:23:25;;;;;;;17.63;9.95;;;;;;;;;;5034848;28;20036;-73
2023/08/12 14:25:51;;;;;;;13.10;8.60;;;;;;;;;;5035745;28;20100;-73
2023/08/12 14:28:17;;;;;;;15.23;9.07;;;;;;;;;;5035322;28;20033;-72